KCHS/CHS METAR and TAF weather

Enter ICAO airport designator
Station Type Date Time Source
KCHS METAR 2019/06/19 01:56 UTC NOAA

KCHS 190156Z 20006KT 10SM FEW020 SCT100 BKN250 26/23 A2994 RMK AO2 SLP137 FRQ LTGIC DSNT W-NW CB DSNT W-NW T02560228


Station Type Date Time Source
KCHS Decoded METAR 2019/06/19 01:56 UTC NOAA

CHARLESTON INT'L AIRPORT, SC, United States (KCHS) 32-54N 080-02W 13M
Jun 18, 2019 - 09:56 PM EDT / 2019.06.19 0156 UTC
Wind: from the SSW (200 degrees) at 7 MPH (6 KT):0
Visibility: 10 mile(s):0
Sky conditions: mostly cloudy
Weather: Cumulonimbus clouds, lightning observed
Temperature: 78.1 F (25.6 C)
Dew Point: 73.0 F (22.8 C)
Relative Humidity: 84%
Pressure (altimeter): 29.94 in. Hg (1013 hPa)
ob: KCHS 190156Z 20006KT 10SM FEW020 SCT100 BKN250 26/23 A2994 RMK AO2 SLP137 FRQ LTGIC DSNT W-NW CB DSNT W-NW T02560228
cycle: 2

Station Type Date Time Source
KCHS TAF 2019/06/18 18:39 UTC NOAA

TAF KCHS 181736Z 1818/1918 15010KT P6SM SCT035
FM190300 22005KT P6SM SCT020 BKN150
FM191400 25006KT P6SM SHRA SCT025 BKN040

Example: see airport list